< < Back
Terminal Aerodrome Forecast


Current Version              Previous Versions:   1  2  3  4  5  6  7  8  9  

Terminal Aerodrome Forecast

532
FTUS44 KBMX 271700
TAFTCL
TAF
KTCL 271731Z 2718/2818 09003KT P6SM FEW050=



Latest METAR

118
SAUS70 KWBC 280100 RRF
MTRTCL
METAR KTCL 280053Z 04003KT 10SM CLR 29/16 A2999 RMK AO2 SLP153
T02890161


USA.gov is the U.S. government's official web portal to all federal, state and local government web resources and services.